KREO

Details ICAO KREO
Name Rome State
Region United States
Timezone America/Boise (UTC-7.0)
Plans Departing 3
Arriving 4
Stats Elevation 4,053 ft / 1,235 m (AMSL)
Location 42.577638° -117.885417°
Runways 1
Magnetic Variation 13.614° E
Sunrise 2017-12-18 15:18:02 UTC / 2017-12-18 08:18:02 Local
Sunset 2017-12-19 00:21:17 UTC / 2017-12-18 17:21:17 Local
Advertisement - Login to hide

Runways

ID Width Length Bearing (true) Bearing (mag) Surface Threshold Offset Overrun Length
03 150 ft / 46 m 5,947 ft / 1,813 m 45.67° 32.06° Gravel 0 ft / 0 m 0 ft / 0 m
21 150 ft / 46 m 5,947 ft / 1,813 m 225.68° 212.07° Gravel 0 ft / 0 m 0 ft / 0 m

Map

Weather


0- 5 10 15 20 25 30 35+ Temperature / ° C

Clouds and Precipitation
Forecast for 2017-12-19 00:00 UTC. Updated an hour ago

Ground ~20,000 ft ~40,000 ft Winds

METAR

KREO 181952Z AUTO 16015KT 03/M03 A3018 RMK AO1 SLP238 T00281033

TAF

Not found

Frequencies

Unicom 122.90 MHz CTAF
Warning: Do not use this data for real-world aviation or navigation. No guarantee of current accuracy is given.